Cortland, Ohio
Current Conditions -  °F | °C
As of 3:51 AM on Thursday 18 Dec 2014 (Local Time) from KYNG Reporting Station
Light Snow Light Snow  
Wind Chill: 19°   Ceiling: 2400
Heat Index: 28°   Visibility: 9mi
Dew Point: 19°   Wind: 10mph
Humidity: 69%   Direction: 270°W
Pressure: 30.15"   Gusts: NA
Location:  41.34°N, 80.72°W
Report Text: KYNG 180851Z 27009KT 9SM -SN OVC024 M02/M07 A3015 RMK AO2 SLP224 P0000 60000 T10221072 51010
Loading
Personal Weather Stations






























Interactive Weather Map New forecast layout! Learn more

10-Day Weather Forecast

Advertisements
Track Severe Weather on mobile